sensor_id;sensor_type;location;lat;lon;timestamp;pressure;altitude;pressure_sealevel;temperature;humidity
29417;BME280;28421;51.030;4.006;2023-02-10T00:02:21;103659.34;;;1.29;75.56
29417;BME280;28421;51.030;4.006;2023-02-10T00:04:47;103662.09;;;1.26;75.59
29417;BME280;28421;51.030;4.006;2023-02-10T00:07:12;103679.72;;;1.27;75.70
29417;BME280;28421;51.030;4.006;2023-02-10T00:09:37;103660.84;;;1.07;75.50
29417;BME280;28421;51.030;4.006;2023-02-10T00:12:03;103690.63;;;1.16;75.75
29417;BME280;28421;51.030;4.006;2023-02-10T00:14:30;103654.19;;;0.92;75.59
29417;BME280;28421;51.030;4.006;2023-02-10T00:16:56;103696.13;;;1.09;75.94
29417;BME280;28421;51.030;4.006;2023-02-10T00:19:24;103691.03;;;0.99;75.90
29417;BME280;28421;51.030;4.006;2023-02-10T00:21:50;103703.22;;;1.08;76.16
29417;BME280;28421;51.030;4.006;2023-02-10T00:24:16;103690.47;;;0.88;75.97
29417;BME280;28421;51.030;4.006;2023-02-10T00:26:41;103666.97;;;0.74;76.23
29417;BME280;28421;51.030;4.006;2023-02-10T00:29:07;103682.72;;;0.81;76.36
29417;BME280;28421;51.030;4.006;2023-02-10T00:31:32;103648.72;;;0.64;76.60
29417;BME280;28421;51.030;4.006;2023-02-10T05:37:59;103749.91;;;-1.46;80.73
29417;BME280;28421;51.030;4.006;2023-02-10T05:40:28;103767.31;;;-1.35;80.55
29417;BME280;28421;51.030;4.006;2023-02-10T05:42:54;103738.75;;;-1.67;81.67
29417;BME280;28421;51.030;4.006;2023-02-10T05:45:19;103727.22;;;-1.60;81.12
29417;BME280;28421;51.030;4.006;2023-02-10T05:47:45;103713.94;;;-1.52;81.54
29417;BME280;28421;51.030;4.006;2023-02-10T05:50:10;103718.44;;;-1.60;81.34
29417;BME280;28421;51.030;4.006;2023-02-10T05:52:36;103750.66;;;-1.38;81.15
29417;BME280;28421;51.030;4.006;2023-02-10T05:55:01;103757.63;;;-1.33;81.49
29417;BME280;28421;51.030;4.006;2023-02-10T05:57:27;103699.91;;;-1.56;81.00
29417;BME280;28421;51.030;4.006;2023-02-10T05:59:52;103726.91;;;-1.38;81.27
29417;BME280;28421;51.030;4.006;2023-02-10T06:02:18;103726.13;;;-1.45;81.36
29417;BME280;28421;51.030;4.006;2023-02-10T06:04:43;103745.97;;;-1.19;80.98
29417;BME280;28421;51.030;4.006;2023-02-10T06:07:09;103752.00;;;-1.11;81.62
29417;BME280;28421;51.030;4.006;2023-02-10T06:09:34;103712.78;;;-1.36;80.96
29417;BME280;28421;51.030;4.006;2023-02-10T06:11:59;103707.53;;;-1.37;80.98
29417;BME280;28421;51.030;4.006;2023-02-10T06:14:26;103756.53;;;-1.19;80.64
29417;BME280;28421;51.030;4.006;2023-02-10T06:16:52;103753.72;;;-1.10;80.78
29417;BME280;28421;51.030;4.006;2023-02-10T06:19:17;103721.53;;;-1.32;80.48
29417;BME280;28421;51.030;4.006;2023-02-10T06:21:43;103740.75;;;-1.24;80.29
29417;BME280;28421;51.030;4.006;2023-02-10T06:24:08;103725.91;;;-1.31;79.84
29417;BME280;28421;51.030;4.006;2023-02-10T06:26:35;103749.66;;;-1.31;79.85
29417;BME280;28421;51.030;4.006;2023-02-10T06:29:01;103749.78;;;-1.39;79.48
29417;BME280;28421;51.030;4.006;2023-02-10T06:31:26;103734.25;;;-1.59;79.65
29417;BME280;28421;51.030;4.006;2023-02-10T06:33:52;103722.00;;;-1.63;79.47
29417;BME280;28421;51.030;4.006;2023-02-10T06:36:17;103765.72;;;-1.45;79.46
29417;BME280;28421;51.030;4.006;2023-02-10T06:38:43;103733.34;;;-1.58;79.23
29417;BME280;28421;51.030;4.006;2023-02-10T06:41:08;103762.06;;;-1.38;79.65
29417;BME280;28421;51.030;4.006;2023-02-10T06:43:34;103725.41;;;-1.56;79.10
29417;BME280;28421;51.030;4.006;2023-02-10T06:45:59;103724.88;;;-1.80;79.46
29417;BME280;28421;51.030;4.006;2023-02-10T06:48:25;103756.25;;;-1.60;80.09
29417;BME280;28421;51.030;4.006;2023-02-10T06:50:52;103752.75;;;-1.60;79.87
29417;BME280;28421;51.030;4.006;2023-02-10T06:53:18;103691.50;;;-1.81;79.44
29417;BME280;28421;51.030;4.006;2023-02-10T06:55:43;103737.56;;;-1.46;79.61
29417;BME280;28421;51.030;4.006;2023-02-10T06:58:09;103728.94;;;-1.56;79.57
29417;BME280;28421;51.030;4.006;2023-02-10T07:00:36;103700.13;;;-1.71;79.55
29417;BME280;28421;51.030;4.006;2023-02-10T07:03:01;103713.31;;;-1.69;79.56
29417;BME280;28421;51.030;4.006;2023-02-10T07:05:27;103755.16;;;-1.46;79.76
29417;BME280;28421;51.030;4.006;2023-02-10T07:07:53;103710.78;;;-1.79;79.39
29417;BME280;28421;51.030;4.006;2023-02-10T07:10:20;103743.16;;;-1.66;80.02
29417;BME280;28421;51.030;4.006;2023-02-10T07:12:45;103765.94;;;-1.60;79.82
29417;BME280;28421;51.030;4.006;2023-02-10T07:15:12;103758.22;;;-1.76;80.46
29417;BME280;28421;51.030;4.006;2023-02-10T07:17:38;103761.38;;;-1.49;80.47
29417;BME280;28421;51.030;4.006;2023-02-10T07:20:04;103743.75;;;-1.47;80.32
29417;BME280;28421;51.030;4.006;2023-02-10T07:22:29;103747.22;;;-1.43;80.05
29417;BME280;28421;51.030;4.006;2023-02-10T07:24:55;103704.47;;;-1.67;80.15
29417;BME280;28421;51.030;4.006;2023-02-10T07:27:21;103720.22;;;-1.62;81.97
29417;BME280;28421;51.030;4.006;2023-02-10T07:29:47;103770.66;;;-1.23;82.49
29417;BME280;28421;51.030;4.006;2023-02-10T07:32:13;103737.38;;;-1.32;82.21
29417;BME280;28421;51.030;4.006;2023-02-10T07:34:38;103752.19;;;-1.23;81.84
29417;BME280;28421;51.030;4.006;2023-02-10T07:37:05;103788.59;;;-0.90;81.82
29417;BME280;28421;51.030;4.006;2023-02-10T07:39:31;103775.47;;;-0.94;81.78
29417;BME280;28421;51.030;4.006;2023-02-10T07:41:56;103779.81;;;-0.92;82.25
29417;BME280;28421;51.030;4.006;2023-02-10T07:44:30;103808.38;;;-0.61;82.43
29417;BME280;28421;51.030;4.006;2023-02-10T07:46:56;103744.41;;;-0.79;82.76
29417;BME280;28421;51.030;4.006;2023-02-10T07:49:21;103752.88;;;-0.63;82.70
29417;BME280;28421;51.030;4.006;2023-02-10T07:51:47;103763.94;;;-0.42;82.77
29417;BME280;28421;51.030;4.006;2023-02-10T07:54:12;103753.09;;;-0.27;82.64
29417;BME280;28421;51.030;4.006;2023-02-10T07:56:37;103801.84;;;0.03;82.73
29417;BME280;28421;51.030;4.006;2023-02-10T07:59:03;103748.22;;;-0.04;82.37
29417;BME280;28421;51.030;4.006;2023-02-10T08:01:29;103742.72;;;0.04;81.87
29417;BME280;28421;51.030;4.006;2023-02-10T08:03:54;103760.03;;;0.20;82.34
29417;BME280;28421;51.030;4.006;2023-02-10T08:06:23;103753.00;;;0.19;82.13
29417;BME280;28421;51.030;4.006;2023-02-10T08:08:49;103739.81;;;0.18;81.95
29417;BME280;28421;51.030;4.006;2023-02-10T08:11:16;103773.72;;;0.39;81.91
29417;BME280;28421;51.030;4.006;2023-02-10T08:13:41;103815.91;;;0.86;81.80
29417;BME280;28421;51.030;4.006;2023-02-10T08:16:07;103775.66;;;0.70;81.71
29417;BME280;28421;51.030;4.006;2023-02-10T08:18:42;103823.63;;;0.95;81.60
29417;BME280;28421;51.030;4.006;2023-02-10T08:21:07;103814.41;;;1.11;82.08
29417;BME280;28421;51.030;4.006;2023-02-10T08:23:34;103815.13;;;1.18;81.73
29417;BME280;28421;51.030;4.006;2023-02-10T08:26:10;103814.88;;;1.29;82.20
29417;BME280;28421;51.030;4.006;2023-02-10T08:28:37;103786.78;;;1.21;82.74
29417;BME280;28421;51.030;4.006;2023-02-10T08:31:05;103778.25;;;1.43;82.65
29417;BME280;28421;51.030;4.006;2023-02-10T08:33:34;103741.41;;;1.34;82.83
29417;BME280;28421;51.030;4.006;2023-02-10T08:36:08;103808.38;;;1.73;83.16
29417;BME280;28421;51.030;4.006;2023-02-10T08:38:34;103764.63;;;1.57;84.37
29417;BME280;28421;51.030;4.006;2023-02-10T08:41:00;103763.63;;;1.61;85.24
29417;BME280;28421;51.030;4.006;2023-02-10T08:43:25;103814.84;;;1.95;85.61
29417;BME280;28421;51.030;4.006;2023-02-10T08:45:55;103789.31;;;1.90;86.34
29417;BME280;28421;51.030;4.006;2023-02-10T08:48:20;103761.06;;;1.89;86.64
29417;BME280;28421;51.030;4.006;2023-02-10T08:50:46;103798.84;;;2.28;87.43
29417;BME280;28421;51.030;4.006;2023-02-10T08:53:11;103764.34;;;2.28;87.27
29417;BME280;28421;51.030;4.006;2023-02-10T08:55:37;103805.19;;;2.80;87.47
29417;BME280;28421;51.030;4.006;2023-02-10T08:58:02;103808.72;;;2.81;86.75
29417;BME280;28421;51.030;4.006;2023-02-10T09:00:28;103822.16;;;3.04;86.94
29417;BME280;28421;51.030;4.006;2023-02-10T09:02:53;103819.97;;;2.89;87.45
29417;BME280;28421;51.030;4.006;2023-02-10T09:05:19;103767.81;;;2.86;87.40
29417;BME280;28421;51.030;4.006;2023-02-10T09:07:45;103837.47;;;3.22;86.93
29417;BME280;28421;51.030;4.006;2023-02-10T09:10:11;103830.81;;;3.36;87.58
29417;BME280;28421;51.030;4.006;2023-02-10T09:12:38;103813.13;;;3.35;87.64
29417;BME280;28421;51.030;4.006;2023-02-10T09:15:04;103776.31;;;3.22;86.97
29417;BME280;28421;51.030;4.006;2023-02-10T09:17:30;103754.72;;;3.32;86.93
29417;BME280;28421;51.030;4.006;2023-02-10T09:19:55;103788.88;;;3.44;87.18
29417;BME280;28421;51.030;4.006;2023-02-10T09:22:21;103829.78;;;3.66;87.14
29417;BME280;28421;51.030;4.006;2023-02-10T09:24:46;103815.28;;;3.75;87.04
29417;BME280;28421;51.030;4.006;2023-02-10T09:27:15;103816.31;;;3.71;87.43
29417;BME280;28421;51.030;4.006;2023-02-10T09:29:40;103841.13;;;3.71;87.29
29417;BME280;28421;51.030;4.006;2023-02-10T09:32:06;103833.56;;;3.84;86.99
29417;BME280;28421;51.030;4.006;2023-02-10T09:34:31;103821.53;;;3.49;87.62
29417;BME280;28421;51.030;4.006;2023-02-10T09:36:57;103801.66;;;3.59;87.50
29417;BME280;28421;51.030;4.006;2023-02-10T09:39:26;103832.19;;;3.74;87.86
29417;BME280;28421;51.030;4.006;2023-02-10T09:42:08;103838.06;;;4.07;88.10
29417;BME280;28421;51.030;4.006;2023-02-10T09:44:38;103828.78;;;4.19;87.93
29417;BME280;28421;51.030;4.006;2023-02-10T09:50:03;103843.97;;;4.62;86.98
29417;BME280;28421;51.030;4.006;2023-02-10T09:53:16;103838.28;;;4.71;86.60
29417;BME280;28421;51.030;4.006;2023-02-10T09:55:31;103819.00;;;4.87;85.53
29417;BME280;28421;51.030;4.006;2023-02-10T09:59:18;103778.53;;;4.77;85.61
29417;BME280;28421;51.030;4.006;2023-02-10T10:01:18;103830.94;;;5.20;85.36
29417;BME280;28421;51.030;4.006;2023-02-10T10:03:57;103835.16;;;5.26;85.51
29417;BME280;28421;51.030;4.006;2023-02-10T10:06:28;103760.91;;;4.95;85.01
29417;BME280;28421;51.030;4.006;2023-02-10T10:09:00;103860.56;;;5.35;85.36
29417;BME280;28421;51.030;4.006;2023-02-10T10:11:49;103857.78;;;5.38;84.73
29417;BME280;28421;51.030;4.006;2023-02-10T10:14:23;103853.50;;;5.34;84.66
29417;BME280;28421;51.030;4.006;2023-02-10T10:27:27;103866.72;;;5.37;86.67
29417;BME280;28421;51.030;4.006;2023-02-10T10:30:02;103840.88;;;5.17;86.55
29417;BME280;28421;51.030;4.006;2023-02-10T10:32:37;103875.25;;;5.03;87.49
29417;BME280;28421;51.030;4.006;2023-02-10T10:35:14;103805.41;;;4.93;87.40
29417;BME280;28421;51.030;4.006;2023-02-10T10:37:40;103814.19;;;5.17;86.48
29417;BME280;28421;51.030;4.006;2023-02-10T10:40:24;103836.09;;;5.25;86.50
29417;BME280;28421;51.030;4.006;2023-02-10T10:43:02;103859.53;;;5.59;86.41
29417;BME280;28421;51.030;4.006;2023-02-10T10:45:47;103870.75;;;5.88;86.13
29417;BME280;28421;51.030;4.006;2023-02-10T10:48:16;103821.31;;;6.00;84.95
29417;BME280;28421;51.030;4.006;2023-02-10T10:50:46;103814.81;;;6.05;84.44
29417;BME280;28421;51.030;4.006;2023-02-10T10:53:15;103833.78;;;6.19;83.23
29417;BME280;28421;51.030;4.006;2023-02-10T10:55:49;103848.66;;;6.25;82.84
29417;BME280;28421;51.030;4.006;2023-02-10T10:58:25;103853.94;;;6.45;82.86
29417;BME280;28421;51.030;4.006;2023-02-10T11:00:58;103872.28;;;6.53;83.16
29417;BME280;28421;51.030;4.006;2023-02-10T11:03:24;103857.63;;;6.62;82.67
29417;BME280;28421;51.030;4.006;2023-02-10T11:06:16;103832.03;;;6.37;82.90
29417;BME280;28421;51.030;4.006;2023-02-10T11:11:50;103834.88;;;6.53;82.49
29417;BME280;28421;51.030;4.006;2023-02-10T11:14:28;103808.56;;;6.63;82.91
29417;BME280;28421;51.030;4.006;2023-02-10T11:16:58;103780.63;;;6.32;83.01
29417;BME280;28421;51.030;4.006;2023-02-10T11:20:06;103824.81;;;6.58;83.21
29417;BME280;28421;51.030;4.006;2023-02-10T11:23:02;103809.94;;;6.53;84.04
29417;BME280;28421;51.030;4.006;2023-02-10T11:25:36;103815.22;;;6.54;84.44
29417;BME280;28421;51.030;4.006;2023-02-10T11:28:05;103820.78;;;6.68;84.17
29417;BME280;28421;51.030;4.006;2023-02-10T11:30:38;103742.53;;;6.46;83.65
29417;BME280;28421;51.030;4.006;2023-02-10T11:33:05;103814.41;;;7.07;83.14
29417;BME280;28421;51.030;4.006;2023-02-10T11:35:32;103761.91;;;6.87;82.62
29417;BME280;28421;51.030;4.006;2023-02-10T11:38:07;103803.88;;;7.21;82.33
29417;BME280;28421;51.030;4.006;2023-02-10T11:40:52;103788.22;;;7.14;82.43
29417;BME280;28421;51.030;4.006;2023-02-10T11:43:20;103799.53;;;6.65;83.86
29417;BME280;28421;51.030;4.006;2023-02-10T11:45:57;103742.81;;;6.59;83.89
29417;BME280;28421;51.030;4.006;2023-02-10T11:48:25;103787.03;;;7.02;83.16
29417;BME280;28421;51.030;4.006;2023-02-10T11:51:14;103741.84;;;6.79;82.74
29417;BME280;28421;51.030;4.006;2023-02-10T11:53:42;103785.59;;;6.95;82.87
29417;BME280;28421;51.030;4.006;2023-02-10T11:56:24;103797.31;;;6.92;83.97
29417;BME280;28421;51.030;4.006;2023-02-10T11:59:22;103783.56;;;7.00;82.99
29417;BME280;28421;51.030;4.006;2023-02-10T12:04:36;103803.34;;;7.32;81.70
29417;BME280;28421;51.030;4.006;2023-02-10T12:09:59;103793.25;;;7.37;81.42
29417;BME280;28421;51.030;4.006;2023-02-10T12:12:43;103791.38;;;7.39;81.17
29417;BME280;28421;51.030;4.006;2023-02-10T12:18:25;103791.38;;;7.39;81.10
29417;BME280;28421;51.030;4.006;2023-02-10T12:23:36;103777.41;;;7.50;80.50
29417;BME280;28421;51.030;4.006;2023-02-10T12:26:26;103775.91;;;7.62;80.70
29417;BME280;28421;51.030;4.006;2023-02-10T12:29:14;103718.94;;;7.25;80.02
29417;BME280;28421;51.030;4.006;2023-02-10T12:34:58;103787.47;;;7.62;80.55
29417;BME280;28421;51.030;4.006;2023-02-10T12:40:28;103736.44;;;7.32;79.94
29417;BME280;28421;51.030;4.006;2023-02-10T12:46:14;103753.88;;;7.05;80.66
29417;BME280;28421;51.030;4.006;2023-02-10T12:49:05;103782.63;;;7.53;80.98
29417;BME280;28421;51.030;4.006;2023-02-10T12:54:17;103769.75;;;7.77;79.85
29417;BME280;28421;51.030;4.006;2023-02-10T12:57:00;103771.91;;;7.53;80.15
29417;BME280;28421;51.030;4.006;2023-02-10T12:59:34;103720.13;;;7.70;79.55
29417;BME280;28421;51.030;4.006;2023-02-10T13:02:09;103759.78;;;7.63;79.80
29417;BME280;28421;51.030;4.006;2023-02-10T13:04:41;103772.03;;;7.85;79.88
29417;BME280;28421;51.030;4.006;2023-02-10T13:07:32;103770.81;;;7.90;79.41
29417;BME280;28421;51.030;4.006;2023-02-10T13:12:36;103726.50;;;7.85;78.18
29417;BME280;28421;51.030;4.006;2023-02-10T13:15:06;103718.25;;;7.88;78.88
29417;BME280;28421;51.030;4.006;2023-02-10T13:17:46;103703.09;;;7.71;78.78
29417;BME280;28421;51.030;4.006;2023-02-10T13:23:38;103754.38;;;7.81;78.74
29417;BME280;28421;51.030;4.006;2023-02-10T13:29:07;103745.94;;;7.88;78.91
29417;BME280;28421;51.030;4.006;2023-02-10T13:34:20;103715.34;;;8.08;77.88
29417;BME280;28421;51.030;4.006;2023-02-10T13:36:55;103716.56;;;8.03;77.93
29417;BME280;28421;51.030;4.006;2023-02-10T13:39:24;103687.19;;;8.01;77.84
29417;BME280;28421;51.030;4.006;2023-02-10T13:44:36;103710.00;;;7.92;78.58
29417;BME280;28421;51.030;4.006;2023-02-10T13:49:37;103688.09;;;8.00;78.28
29417;BME280;28421;51.030;4.006;2023-02-10T13:52:26;103698.22;;;7.95;78.45
29417;BME280;28421;51.030;4.006;2023-02-10T13:55:03;103709.31;;;8.05;78.75
29417;BME280;28421;51.030;4.006;2023-02-10T14:00:43;103722.00;;;8.17;77.96
29417;BME280;28421;51.030;4.006;2023-02-10T14:05:37;103680.59;;;8.07;76.34
29417;BME280;28421;51.030;4.006;2023-02-10T14:08:39;103705.75;;;8.20;76.49
29417;BME280;28421;51.030;4.006;2023-02-10T14:13:33;103679.97;;;7.70;77.68
29417;BME280;28421;51.030;4.006;2023-02-10T14:16:02;103702.22;;;8.19;76.94
29417;BME280;28421;51.030;4.006;2023-02-10T14:18:37;103688.22;;;8.14;76.70
29417;BME280;28421;51.030;4.006;2023-02-10T14:21:09;103691.69;;;8.48;75.96
29417;BME280;28421;51.030;4.006;2023-02-10T14:23:37;103716.50;;;8.67;75.43
29417;BME280;28421;51.030;4.006;2023-02-10T14:26:20;103651.97;;;8.23;75.04
29417;BME280;28421;51.030;4.006;2023-02-10T14:28:53;103703.81;;;8.39;75.74
29417;BME280;28421;51.030;4.006;2023-02-10T14:31:30;103670.38;;;8.29;75.35
29417;BME280;28421;51.030;4.006;2023-02-10T14:34:01;103665.22;;;8.26;75.75
29417;BME280;28421;51.030;4.006;2023-02-10T14:36:27;103650.59;;;8.32;75.44
29417;BME280;28421;51.030;4.006;2023-02-10T14:38:58;103695.91;;;8.52;76.20
29417;BME280;28421;51.030;4.006;2023-02-10T14:41:26;103681.41;;;8.40;76.78
29417;BME280;28421;51.030;4.006;2023-02-10T14:43:52;103688.13;;;8.48;76.66
29417;BME280;28421;51.030;4.006;2023-02-10T14:46:27;103681.78;;;8.33;77.30
29417;BME280;28421;51.030;4.006;2023-02-10T14:48:58;103682.47;;;8.38;77.12
29417;BME280;28421;51.030;4.006;2023-02-10T14:51:26;103653.13;;;8.19;77.13
29417;BME280;28421;51.030;4.006;2023-02-10T14:53:51;103638.75;;;8.04;76.87
29417;BME280;28421;51.030;4.006;2023-02-10T14:56:28;103699.13;;;8.43;76.87
29417;BME280;28421;51.030;4.006;2023-02-10T14:58:54;103671.72;;;8.38;76.69
29417;BME280;28421;51.030;4.006;2023-02-10T15:01:29;103676.97;;;8.55;75.78
29417;BME280;28421;51.030;4.006;2023-02-10T15:03:56;103638.22;;;8.29;76.21
29417;BME280;28421;51.030;4.006;2023-02-10T15:06:30;103673.06;;;8.61;75.52
29417;BME280;28421;51.030;4.006;2023-02-10T15:09:00;103657.34;;;8.55;76.03
29417;BME280;28421;51.030;4.006;2023-02-10T15:11:34;103636.44;;;8.30;75.80
29417;BME280;28421;51.030;4.006;2023-02-10T15:14:31;103649.41;;;8.21;76.09
29417;BME280;28421;51.030;4.006;2023-02-10T15:17:03;103628.56;;;7.95;76.79
29417;BME280;28421;51.030;4.006;2023-02-10T15:19:29;103650.53;;;8.17;76.17
29417;BME280;28421;51.030;4.006;2023-02-10T15:21:55;103656.66;;;8.19;75.93
29417;BME280;28421;51.030;4.006;2023-02-10T15:24:31;103687.16;;;8.33;76.10
29417;BME280;28421;51.030;4.006;2023-02-10T15:27:17;103662.53;;;8.10;76.06
29417;BME280;28421;51.030;4.006;2023-02-10T15:29:43;103677.06;;;8.22;76.21
29417;BME280;28421;51.030;4.006;2023-02-10T15:32:19;103687.44;;;8.28;76.18
29417;BME280;28421;51.030;4.006;2023-02-10T15:34:45;103636.00;;;7.90;76.75
29417;BME280;28421;51.030;4.006;2023-02-10T15:37:23;103661.91;;;8.21;76.60
29417;BME280;28421;51.030;4.006;2023-02-10T15:40:00;103664.94;;;8.31;75.99
29417;BME280;28421;51.030;4.006;2023-02-10T15:42:29;103656.31;;;8.26;75.55
29417;BME280;28421;51.030;4.006;2023-02-10T15:47:53;103671.78;;;8.36;76.01
29417;BME280;28421;51.030;4.006;2023-02-10T15:50:23;103652.75;;;8.25;76.20
29417;BME280;28421;51.030;4.006;2023-02-10T15:52:48;103659.84;;;8.26;75.85
29417;BME280;28421;51.030;4.006;2023-02-10T15:55:36;103679.94;;;8.51;75.81
29417;BME280;28421;51.030;4.006;2023-02-10T15:58:11;103682.34;;;8.39;75.88
29417;BME280;28421;51.030;4.006;2023-02-10T16:00:37;103682.09;;;8.44;75.84
29417;BME280;28421;51.030;4.006;2023-02-10T16:03:04;103636.19;;;8.03;76.23
29417;BME280;28421;51.030;4.006;2023-02-10T16:05:41;103691.75;;;7.99;77.41
29417;BME280;28421;51.030;4.006;2023-02-10T16:08:21;103671.97;;;8.02;76.78
29417;BME280;28421;51.030;4.006;2023-02-10T16:10:47;103685.44;;;8.00;76.73
29417;BME280;28421;51.030;4.006;2023-02-10T16:13:16;103682.50;;;7.89;77.28
29417;BME280;28421;51.030;4.006;2023-02-10T16:15:53;103645.66;;;7.61;77.49
29417;BME280;28421;51.030;4.006;2023-02-10T16:18:25;103674.38;;;7.90;76.86
29417;BME280;28421;51.030;4.006;2023-02-10T16:20:59;103624.56;;;7.39;77.07
29417;BME280;28421;51.030;4.006;2023-02-10T16:23:27;103684.25;;;7.57;78.27
29417;BME280;28421;51.030;4.006;2023-02-10T16:25:57;103634.97;;;7.28;78.21
29417;BME280;28421;51.030;4.006;2023-02-10T16:28:29;103640.81;;;7.52;77.86
29417;BME280;28421;51.030;4.006;2023-02-10T16:31:14;103619.38;;;7.36;77.58
29417;BME280;28421;51.030;4.006;2023-02-10T16:33:57;103653.94;;;7.56;77.80
29417;BME280;28421;51.030;4.006;2023-02-10T16:36:41;103640.88;;;7.50;77.45
29417;BME280;28421;51.030;4.006;2023-02-10T16:39:21;103675.03;;;7.62;77.75
29417;BME280;28421;51.030;4.006;2023-02-10T16:41:48;103663.41;;;7.46;78.41
29417;BME280;28421;51.030;4.006;2023-02-10T16:44:15;103671.13;;;7.52;78.47
29417;BME280;28421;51.030;4.006;2023-02-10T16:46:44;103659.88;;;7.45;78.18
29417;BME280;28421;51.030;4.006;2023-02-10T16:49:22;103670.13;;;7.37;78.71
29417;BME280;28421;51.030;4.006;2023-02-10T16:51:59;103635.16;;;7.07;78.93
29417;BME280;28421;51.030;4.006;2023-02-10T16:54:42;103647.78;;;7.05;78.87
29417;BME280;28421;51.030;4.006;2023-02-10T16:57:33;103681.13;;;6.98;80.52
29417;BME280;28421;51.030;4.006;2023-02-10T17:00:31;103624.31;;;6.58;80.38
29417;BME280;28421;51.030;4.006;2023-02-10T17:02:57;103688.66;;;7.07;80.31
29417;BME280;28421;51.030;4.006;2023-02-10T17:05:23;103644.75;;;6.59;81.14
29417;BME280;28421;51.030;4.006;2023-02-10T17:07:49;103686.38;;;6.82;81.48
29417;BME280;28421;51.030;4.006;2023-02-10T17:12:42;103682.06;;;6.80;80.99
29417;BME280;28421;51.030;4.006;2023-02-10T17:15:08;103685.34;;;6.67;81.37
29417;BME280;28421;51.030;4.006;2023-02-10T17:17:33;103679.22;;;6.65;81.94
29417;BME280;28421;51.030;4.006;2023-02-10T17:19:59;103657.50;;;6.54;81.41
29417;BME280;28421;51.030;4.006;2023-02-10T17:22:24;103667.25;;;6.55;82.23
29417;BME280;28421;51.030;4.006;2023-02-10T17:24:50;103658.59;;;6.50;81.82
29417;BME280;28421;51.030;4.006;2023-02-10T17:27:16;103662.59;;;6.41;82.49
29417;BME280;28421;51.030;4.006;2023-02-10T17:29:41;103654.66;;;6.40;82.61
29417;BME280;28421;51.030;4.006;2023-02-10T17:32:07;103691.78;;;6.63;82.58
29417;BME280;28421;51.030;4.006;2023-02-10T17:34:32;103671.31;;;6.45;82.52
29417;BME280;28421;51.030;4.006;2023-02-10T17:37:03;103650.16;;;6.23;82.86
29417;BME280;28421;51.030;4.006;2023-02-10T17:39:31;103665.09;;;6.27;83.48
29417;BME280;28421;51.030;4.006;2023-02-10T17:42:05;103648.41;;;6.22;83.51
29417;BME280;28421;51.030;4.006;2023-02-10T17:44:31;103672.63;;;6.19;84.05
29417;BME280;28421;51.030;4.006;2023-02-10T17:46:57;103685.53;;;6.28;84.37
29417;BME280;28421;51.030;4.006;2023-02-10T17:49:26;103641.38;;;6.02;84.36
29417;BME280;28421;51.030;4.006;2023-02-10T17:51:51;103650.59;;;6.14;84.33
29417;BME280;28421;51.030;4.006;2023-02-10T17:54:17;103671.22;;;6.29;84.29
29417;BME280;28421;51.030;4.006;2023-02-10T17:56:44;103651.84;;;6.07;85.05
29417;BME280;28421;51.030;4.006;2023-02-10T17:59:10;103670.72;;;6.21;nan
29417;BME280;28421;51.030;4.006;2023-02-10T18:01:36;103634.44;;;5.98;85.25
29417;BME280;28421;51.030;4.006;2023-02-10T18:04:02;103647.25;;;6.09;84.68
29417;BME280;28421;51.030;4.006;2023-02-10T18:06:28;103633.50;;;5.99;85.24
29417;BME280;28421;51.030;4.006;2023-02-10T18:08:55;103639.44;;;6.06;85.41
29417;BME280;28421;51.030;4.006;2023-02-10T18:11:21;103675.78;;;6.27;85.24
29417;BME280;28421;51.030;4.006;2023-02-10T18:13:47;103674.34;;;6.20;85.30
29417;BME280;28421;51.030;4.006;2023-02-10T18:16:14;103623.38;;;5.87;85.95
29417;BME280;28421;51.030;4.006;2023-02-10T18:18:41;103679.59;;;6.21;85.51
29417;BME280;28421;51.030;4.006;2023-02-10T18:21:15;103660.84;;;6.04;85.39
29417;BME280;28421;51.030;4.006;2023-02-10T18:23:41;103671.75;;;6.00;86.61
29417;BME280;28421;51.030;4.006;2023-02-10T18:26:07;103645.59;;;5.87;86.49
29417;BME280;28421;51.030;4.006;2023-02-10T18:28:32;103658.19;;;6.04;85.76
29417;BME280;28421;51.030;4.006;2023-02-10T18:31:01;103685.75;;;6.23;85.70
29417;BME280;28421;51.030;4.006;2023-02-10T18:33:28;103663.75;;;6.18;85.61
29417;BME280;28421;51.030;4.006;2023-02-10T18:35:54;103631.84;;;5.96;85.77
29417;BME280;28421;51.030;4.006;2023-02-10T18:38:20;103674.34;;;6.20;85.80
29417;BME280;28421;51.030;4.006;2023-02-10T18:40:45;103657.22;;;6.05;85.27
29417;BME280;28421;51.030;4.006;2023-02-10T18:43:14;103669.72;;;6.23;85.00
29417;BME280;28421;51.030;4.006;2023-02-10T18:45:39;103649.88;;;6.10;84.65
29417;BME280;28421;51.030;4.006;2023-02-10T18:48:10;103657.31;;;6.22;84.72
29417;BME280;28421;51.030;4.006;2023-02-10T18:50:36;103664.78;;;6.33;84.42
29417;BME280;28421;51.030;4.006;2023-02-10T18:53:02;103638.44;;;6.26;83.96
29417;BME280;28421;51.030;4.006;2023-02-10T18:55:27;103663.41;;;6.43;83.84
29417;BME280;28421;51.030;4.006;2023-02-10T18:57:53;103659.63;;;6.47;83.44
29417;BME280;28421;51.030;4.006;2023-02-10T19:00:18;103651.56;;;6.30;83.45
29417;BME280;28421;51.030;4.006;2023-02-10T19:02:44;103649.31;;;6.40;83.25
29417;BME280;28421;51.030;4.006;2023-02-10T19:05:09;103617.06;;;6.26;83.27
29417;BME280;28421;51.030;4.006;2023-02-10T19:07:34;103666.25;;;6.58;83.04
29417;BME280;28421;51.030;4.006;2023-02-10T19:10:00;103651.63;;;6.47;82.38
29417;BME280;28421;51.030;4.006;2023-02-10T19:12:27;103650.44;;;6.53;82.20
29417;BME280;28421;51.030;4.006;2023-02-10T19:14:53;103642.06;;;6.42;82.20
29417;BME280;28421;51.030;4.006;2023-02-10T19:17:18;103654.34;;;6.46;82.55
29417;BME280;28421;51.030;4.006;2023-02-10T19:19:44;103649.09;;;6.44;82.23
29417;BME280;28421;51.030;4.006;2023-02-10T19:22:09;103617.63;;;6.32;82.17
29417;BME280;28421;51.030;4.006;2023-02-10T19:24:36;103614.00;;;6.33;81.90
29417;BME280;28421;51.030;4.006;2023-02-10T19:27:02;103623.44;;;6.40;81.98
29417;BME280;28421;51.030;4.006;2023-02-10T19:29:28;103638.16;;;6.49;81.73